Time;durP1;ratioP1;P1;durP2;ratioP2;P2;SDS_P1;SDS_P2;PMS_P1;PMS_P2;Temp;Humidity;BMP_temperature;BMP_pressure;BME280_temperature;BME280_humidity;BME280_pressure;Samples;Min_cycle;Max_cycle;Signal;HPM_P1;HPM_P2
2023/10/21 00:00:35;;;;;;;4.20;3.40;;;22.50;99.40;;;;;;5019732;28;20501;-61
2023/10/21 00:03:02;;;;;;;5.03;3.33;;;22.50;99.20;;;;;;5015338;28;20511;-62
2023/10/21 00:05:29;;;;;;;4.97;3.50;;;22.50;99.20;;;;;;5017012;28;20980;-62
2023/10/21 00:07:57;;;;;;;4.70;3.40;;;22.50;99.20;;;;;;5017689;28;20482;-61
2023/10/21 00:10:24;;;;;;;4.80;3.37;;;22.40;99.20;;;;;;5019332;28;20453;-61
2023/10/21 00:12:50;;;;;;;5.20;3.10;;;22.50;99.30;;;;;;5017615;28;21037;-61
2023/10/21 00:15:17;;;;;;;6.53;4.03;;;22.50;99.30;;;;;;5018354;28;20458;-62
2023/10/21 00:17:44;;;;;;;3.83;2.80;;;22.40;99.20;;;;;;5020538;28;20464;-61
2023/10/21 00:20:14;;;;;;;6.13;3.57;;;22.40;99.20;;;;;;5017923;28;20453;-61
2023/10/21 00:22:41;;;;;;;6.10;3.43;;;22.40;99.20;;;;;;5014890;28;21993;-62
2023/10/21 00:25:09;;;;;;;6.10;3.70;;;22.40;99.20;;;;;;5017177;28;20462;-62
2023/10/21 00:27:36;;;;;;;6.33;3.20;;;22.30;99.10;;;;;;5019466;28;20478;-61
2023/10/21 00:30:03;;;;;;;4.93;3.43;;;22.30;99.20;;;;;;5015402;28;20463;-62
2023/10/21 00:32:30;;;;;;;5.63;3.00;;;22.30;99.20;;;;;;5015026;28;20465;-61
2023/10/21 00:34:57;;;;;;;4.10;3.20;;;22.30;99.20;;;;;;5017644;28;20462;-64
2023/10/21 00:37:23;;;;;;;3.70;3.10;;;22.30;99.20;;;;;;5017517;28;20466;-64
2023/10/21 00:39:50;;;;;;;5.57;3.00;;;22.30;99.20;;;;;;5019312;28;20458;-62
2023/10/21 00:42:18;;;;;;;6.20;3.23;;;22.30;99.60;;;;;;5018631;28;20462;-64
2023/10/21 00:44:45;;;;;;;4.70;2.83;;;22.30;99.20;;;;;;5015930;28;20461;-63
2023/10/21 00:47:12;;;;;;;7.70;3.60;;;22.20;99.20;;;;;;5015025;28;20465;-62
2023/10/21 00:49:39;;;;;;;7.97;3.70;;;22.20;99.20;;;;;;5018504;28;20462;-63
2023/10/21 00:52:06;;;;;;;4.00;3.07;;;22.20;99.20;;;;;;5014805;28;20461;-62
2023/10/21 00:54:33;;;;;;;5.20;3.63;;;22.30;99.30;;;;;;5016869;28;20468;-63
2023/10/21 00:57:00;;;;;;;5.50;3.60;;;22.20;99.30;;;;;;5016022;28;20458;-62
2023/10/21 00:59:28;;;;;;;6.83;3.33;;;22.20;99.30;;;;;;5020548;28;20744;-63
2023/10/21 01:01:55;;;;;;;4.27;3.27;;;22.20;99.20;;;;;;5015056;28;20466;-63
2023/10/21 01:04:23;;;;;;;5.87;3.60;;;22.20;99.30;;;;;;5033688;22;20502;-63
2023/10/21 01:06:49;;;;;;;4.40;2.50;;;22.20;99.30;;;;;;5016466;28;20455;-63
2023/10/21 01:09:17;;;;;;;5.20;3.57;;;22.20;99.40;;;;;;5019614;28;21040;-63
2023/10/21 01:11:43;;;;;;;7.53;4.93;;;22.10;99.30;;;;;;5017746;28;20469;-62
2023/10/21 01:14:10;;;;;;;3.90;2.37;;;22.10;99.40;;;;;;5022594;28;20458;-63
2023/10/21 01:16:38;;;;;;;4.77;2.83;;;22.20;99.30;;;;;;5017439;28;20473;-62
2023/10/21 01:19:06;;;;;;;4.33;2.77;;;22.10;99.30;;;;;;5017704;28;20457;-61
2023/10/21 01:21:33;;;;;;;4.53;2.97;;;22.10;99.40;;;;;;5016978;28;20580;-64
2023/10/21 01:24:01;;;;;;;4.23;3.50;;;22.00;99.30;;;;;;5020822;28;20468;-64
2023/10/21 01:26:28;;;;;;;3.40;3.10;;;22.10;99.50;;;;;;5020447;28;20462;-63
2023/10/21 01:28:55;;;;;;;5.93;2.87;;;22.10;99.40;;;;;;5021006;28;20477;-63
2023/10/21 01:34:44;;;;;;;4.90;3.20;;;22.00;99.30;;;;;;4999224;28;20426;-63
2023/10/21 01:37:10;;;;;;;4.87;2.70;;;22.00;99.40;;;;;;5014829;28;20974;-63
2023/10/21 01:39:38;;;;;;;6.13;4.00;;;22.00;99.40;;;;;;5020413;28;20454;-64
2023/10/21 01:42:06;;;;;;;3.87;3.30;;;22.00;99.40;;;;;;5017813;28;20532;-63
2023/10/21 01:44:32;;;;;;;5.40;2.90;;;22.00;99.50;;;;;;5017547;28;21972;-62
2023/10/21 01:47:00;;;;;;;3.60;3.00;;;22.00;99.40;;;;;;5015190;28;20462;-64
2023/10/21 01:49:26;;;;;;;5.67;3.20;;;22.00;99.50;;;;;;5017382;28;20482;-62
2023/10/21 01:51:53;;;;;;;6.67;4.00;;;21.90;99.50;;;;;;5011232;28;20839;-63
2023/10/21 01:54:20;;;;;;;6.80;3.40;;;21.90;99.40;;;;;;5014919;28;20458;-64
2023/10/21 01:56:48;;;;;;;2.97;2.33;;;21.90;99.50;;;;;;5017241;28;20458;-63
2023/10/21 01:59:15;;;;;;;4.80;2.77;;;21.90;99.50;;;;;;5017307;28;20458;-62
2023/10/21 02:01:41;;;;;;;3.47;2.60;;;21.90;99.50;;;;;;5015103;28;20465;-63
2023/10/21 02:04:08;;;;;;;3.50;2.53;;;21.90;99.50;;;;;;5014225;28;20477;-63
2023/10/21 02:06:35;;;;;;;4.43;2.83;;;21.80;99.50;;;;;;5014136;28;20461;-62
2023/10/21 02:09:02;;;;;;;3.90;2.60;;;21.80;99.50;;;;;;5014929;28;20504;-63
2023/10/21 02:11:28;;;;;;;4.00;2.67;;;21.80;99.50;;;;;;5016314;28;21243;-63
2023/10/21 02:13:56;;;;;;;4.70;3.27;;;21.90;99.60;;;;;;5014021;28;20462;-63
2023/10/21 02:16:23;;;;;;;3.63;2.50;;;21.80;99.50;;;;;;5016195;28;20473;-63
2023/10/21 02:18:50;;;;;;;6.10;3.50;;;21.80;99.60;;;;;;5016710;28;20579;-62
2023/10/21 02:21:17;;;;;;;3.67;2.87;;;21.80;99.60;;;;;;5018471;28;20202;-62
2023/10/21 02:23:44;;;;;;;5.50;3.07;;;21.80;99.60;;;;;;5019633;28;20458;-62
2023/10/21 02:26:11;;;;;;;4.07;2.90;;;21.80;99.60;;;;;;5018926;28;20457;-61
2023/10/21 02:28:38;;;;;;;5.30;3.33;;;21.80;99.60;;;;;;5015547;28;20485;-64
2023/10/21 02:31:06;;;;;;;3.47;2.50;;;21.70;99.60;;;;;;5017738;28;20489;-63
2023/10/21 02:33:33;;;;;;;4.40;2.67;;;21.80;99.60;;;;;;5014446;28;20989;-63
2023/10/21 02:36:00;;;;;;;2.97;2.67;;;21.70;99.60;;;;;;5015037;28;20463;-63
2023/10/21 02:38:26;;;;;;;3.63;2.60;;;21.80;99.70;;;;;;5015960;28;20464;-62
2023/10/21 02:40:53;;;;;;;3.67;2.70;;;21.70;99.60;;;;;;5015444;28;20463;-63
2023/10/21 02:43:20;;;;;;;5.87;3.57;;;21.70;99.60;;;;;;5012079;28;20859;-63
2023/10/21 02:45:47;;;;;;;4.50;3.00;;;21.70;99.60;;;;;;5014003;28;20463;-63
2023/10/21 02:48:16;;;;;;;5.70;2.60;;;21.80;99.70;;;;;;5018993;28;20487;-61
2023/10/21 02:50:43;;;;;;;3.47;2.73;;;21.70;99.70;;;;;;5017618;28;20461;-63
2023/10/21 02:53:10;;;;;;;3.35;2.88;;;21.70;99.70;;;;;;5017359;28;20497;-62
2023/10/21 02:55:37;;;;;;;4.37;2.57;;;21.70;99.70;;;;;;5016941;28;20309;-62
2023/10/21 02:58:04;;;;;;;3.20;2.55;;;21.70;99.70;;;;;;5019608;28;20477;-61
2023/10/21 03:00:31;;;;;;;2.97;2.30;;;21.60;99.70;;;;;;5021512;28;20732;-62
2023/10/21 03:02:59;;;;;;;3.50;2.70;;;21.60;99.70;;;;;;5021095;28;20469;-61
2023/10/21 03:05:27;;;;;;;3.90;2.73;;;21.60;99.70;;;;;;5023607;28;20464;-62
2023/10/21 03:07:54;;;;;;;3.83;3.07;;;21.60;99.70;;;;;;5023360;28;20810;-62
2023/10/21 03:10:22;;;;;;;4.13;3.10;;;21.60;99.70;;;;;;5024522;28;20462;-61
2023/10/21 03:12:49;;;;;;;3.00;2.37;;;21.70;99.70;;;;;;5024757;28;20464;-62
2023/10/21 03:15:16;;;;;;;3.00;2.70;;;21.60;99.60;;;;;;5025721;28;21369;-63
2023/10/21 03:17:43;;;;;;;3.40;3.00;;;21.60;99.70;;;;;;5025970;28;20469;-63
2023/10/21 03:20:11;;;;;;;3.13;2.00;;;21.60;99.70;;;;;;5021519;28;20461;-62
2023/10/21 03:22:39;;;;;;;3.47;2.83;;;21.60;99.70;;;;;;5023595;28;20466;-63
2023/10/21 03:25:07;;;;;;;4.67;3.23;;;21.60;99.80;;;;;;5021072;28;20199;-61
2023/10/21 03:27:34;;;;;;;2.50;2.10;;;21.60;99.80;;;;;;5022879;28;22632;-63
2023/10/21 03:30:01;;;;;;;4.87;2.00;;;21.60;99.80;;;;;;5022096;28;20476;-63
2023/10/21 03:32:27;;;;;;;3.25;2.60;;;21.50;99.80;;;;;;5023473;28;20454;-62
2023/10/21 03:34:54;;;;;;;2.67;2.45;;;21.50;99.80;;;;;;5019532;28;21201;-61
2023/10/21 03:37:21;;;;;;;3.47;2.33;;;21.50;99.80;;;;;;5023058;28;20286;-63
2023/10/21 03:39:49;;;;;;;3.50;2.50;;;21.50;99.80;;;;;;5022867;28;20688;-62
2023/10/21 03:42:16;;;;;;;3.87;3.03;;;21.50;99.80;;;;;;5022313;28;20460;-63
2023/10/21 03:44:43;;;;;;;2.80;2.17;;;21.50;99.90;;;;;;5022782;28;20463;-62
2023/10/21 03:47:09;;;;;;;3.83;2.60;;;21.50;99.70;;;;;;5019988;28;20470;-61
2023/10/21 03:49:36;;;;;;;3.10;2.50;;;21.50;99.70;;;;;;5017540;28;21048;-62
2023/10/21 03:52:03;;;;;;;6.72;2.90;;;21.50;99.80;;;;;;5019440;28;20257;-63
2023/10/21 03:54:30;;;;;;;3.10;2.30;;;21.50;99.80;;;;;;5018890;28;20203;-62
2023/10/21 03:56:59;;;;;;;4.00;2.60;;;21.50;99.90;;;;;;5018107;28;20460;-63
2023/10/21 03:59:25;;;;;;;5.10;2.53;;;21.40;99.80;;;;;;5019325;28;20489;-61
2023/10/21 04:01:52;;;;;;;3.03;2.40;;;21.40;99.80;;;;;;5021497;28;20457;-62
2023/10/21 04:04:19;;;;;;;3.33;2.13;;;21.40;99.80;;;;;;5019634;28;22673;-61
2023/10/21 04:06:46;;;;;;;6.67;3.40;;;21.40;99.80;;;;;;5019195;28;20458;-62
2023/10/21 04:09:13;;;;;;;2.83;2.50;;;21.50;99.90;;;;;;5021883;28;20486;-63
2023/10/21 04:11:41;;;;;;;4.20;2.50;;;21.40;99.80;;;;;;5018396;28;20470;-62
2023/10/21 04:14:10;;;;;;;3.78;2.47;;;21.40;99.80;;;;;;5019640;28;20289;-62
2023/10/21 04:16:42;;;;;;;2.87;1.80;;;21.50;99.90;;;;;;5018859;28;20200;-62
2023/10/21 04:19:09;;;;;;;3.70;2.40;;;21.40;99.90;;;;;;5017092;28;20466;-62
2023/10/21 04:21:36;;;;;;;2.40;2.20;;;21.40;99.90;;;;;;5020295;28;21087;-62
2023/10/21 04:24:03;;;;;;;3.20;2.10;;;21.40;99.90;;;;;;5019510;28;20467;-63
2023/10/21 04:26:30;;;;;;;4.22;2.38;;;21.40;99.90;;;;;;5021045;28;20834;-62
2023/10/21 04:28:57;;;;;;;4.78;2.72;;;21.50;99.90;;;;;;5016174;28;20226;-63
2023/10/21 04:31:25;;;;;;;3.03;2.08;;;21.30;99.90;;;;;;5019638;28;20206;-62
2023/10/21 04:33:51;;;;;;;2.67;2.00;;;21.40;99.90;;;;;;5020832;28;20779;-61
2023/10/21 04:36:19;;;;;;;3.75;2.15;;;21.40;99.90;;;;;;5022290;28;20210;-63
2023/10/21 04:38:46;;;;;;;3.37;2.60;;;21.40;99.90;;;;;;5016332;28;20200;-61
2023/10/21 04:41:12;;;;;;;2.67;2.17;;;21.40;99.90;;;;;;5020129;28;20580;-62
2023/10/21 04:43:39;;;;;;;5.80;3.35;;;21.30;99.90;;;;;;5020676;28;20199;-61
2023/10/21 04:46:06;;;;;;;4.05;2.42;;;21.40;99.90;;;;;;5018401;28;20206;-62
2023/10/21 04:48:34;;;;;;;2.65;2.22;;;21.30;99.90;;;;;;5019184;28;20203;-63
2023/10/21 04:51:00;;;;;;;2.95;2.35;;;21.30;99.90;;;;;;5022120;28;20199;-62
2023/10/21 04:53:27;;;;;;;3.00;2.00;;;21.30;99.90;;;;;;5021570;28;20647;-63
2023/10/21 04:55:54;;;;;;;4.17;2.83;;;21.30;99.90;;;;;;5017005;28;20454;-62
2023/10/21 04:58:21;;;;;;;3.90;2.57;;;21.30;99.90;;;;;;5020406;28;21096;-63
2023/10/21 05:00:47;;;;;;;2.80;2.03;;;21.30;99.90;;;;;;5020953;28;20509;-61
2023/10/21 05:03:14;;;;;;;2.57;2.30;;;21.30;99.90;;;;;;5020639;28;20469;-62
2023/10/21 05:05:43;;;;;;;2.20;1.75;;;21.40;99.90;;;;;;5022076;28;20922;-63
2023/10/21 05:08:09;;;;;;;2.77;2.10;;;21.30;99.90;;;;;;5018206;28;20630;-63
2023/10/21 05:10:36;;;;;;;3.13;2.57;;;21.40;99.90;;;;;;5019540;28;20491;-63
2023/10/21 05:13:03;;;;;;;1.90;1.70;;;21.30;99.90;;;;;;5022498;28;20852;-62
2023/10/21 05:15:30;;;;;;;5.25;2.80;;;21.20;99.90;;;;;;5021021;28;20454;-62
2023/10/21 05:17:57;;;;;;;4.70;2.50;;;21.30;99.90;;;;;;5022607;28;20253;-62
2023/10/21 05:20:24;;;;;;;2.63;2.35;;;21.30;99.90;;;;;;5022452;28;20469;-63
2023/10/21 05:22:52;;;;;;;2.77;2.20;;;21.20;99.90;;;;;;5022826;28;20719;-62
2023/10/21 05:25:19;;;;;;;2.40;2.10;;;21.20;99.90;;;;;;5023612;28;20599;-62
2023/10/21 05:27:46;;;;;;;3.77;2.37;;;21.40;99.90;;;;;;5021417;28;20199;-63
2023/10/21 05:30:13;;;;;;;2.87;2.00;;;21.20;99.90;;;;;;5013514;28;20632;-61
2023/10/21 05:32:40;;;;;;;5.10;2.55;;;21.20;99.90;;;;;;5021714;28;20462;-63
2023/10/21 05:35:08;;;;;;;3.35;2.40;;;21.20;99.90;;;;;;5019906;28;20195;-62
2023/10/21 05:37:35;;;;;;;6.23;2.30;;;21.20;99.90;;;;;;5017895;28;20248;-63
2023/10/21 05:40:04;;;;;;;6.30;2.33;;;21.20;99.90;;;;;;5019474;28;20489;-62
2023/10/21 05:42:31;;;;;;;4.30;2.30;;;21.20;99.90;;;;;;5021611;28;20191;-61
2023/10/21 05:44:58;;;;;;;4.23;2.00;;;21.20;99.90;;;;;;5021286;28;20464;-62
2023/10/21 05:47:26;;;;;;;5.90;2.17;;;21.20;99.90;;;;;;5016712;28;20468;-61
2023/10/21 05:49:53;;;;;;;2.28;2.05;;;21.20;99.90;;;;;;5019599;28;20477;-62
2023/10/21 05:52:20;;;;;;;3.55;2.50;;;21.20;99.90;;;;;;5016964;28;20195;-62
2023/10/21 05:54:46;;;;;;;4.40;2.38;;;21.30;99.90;;;;;;5020366;28;20298;-62
2023/10/21 05:57:14;;;;;;;3.03;2.33;;;21.20;99.90;;;;;;5018289;28;20200;-61
2023/10/21 05:59:41;;;;;;;2.37;2.17;;;21.20;99.90;;;;;;5011956;28;20461;-62
2023/10/21 06:02:09;;;;;;;1.90;1.50;;;21.10;99.90;;;;;;5018266;28;20477;-62
2023/10/21 06:04:35;;;;;;;4.53;2.23;;;21.20;99.90;;;;;;5017904;28;20212;-62
2023/10/21 06:07:02;;;;;;;2.90;1.80;;;21.10;99.90;;;;;;5015227;28;20807;-62
2023/10/21 06:09:29;;;;;;;2.40;1.77;;;21.10;99.90;;;;;;5013276;28;20248;-62
2023/10/21 06:11:55;;;;;;;2.05;1.83;;;21.20;99.90;;;;;;5018598;28;20475;-62
2023/10/21 06:14:23;;;;;;;3.67;2.30;;;21.10;99.90;;;;;;5019962;28;20210;-62
2023/10/21 06:16:50;;;;;;;2.40;2.20;;;21.20;99.90;;;;;;5017174;28;20191;-62
2023/10/21 06:19:17;;;;;;;1.67;1.50;;;21.10;99.90;;;;;;5015748;28;20462;-61
2023/10/21 06:21:44;;;;;;;3.73;2.00;;;21.10;99.90;;;;;;5007837;28;20195;-61
2023/10/21 06:24:11;;;;;;;2.42;2.17;;;21.10;99.90;;;;;;5018774;28;20463;-61
2023/10/21 06:26:38;;;;;;;2.00;1.67;;;21.10;99.90;;;;;;5013479;28;20195;-60
2023/10/21 06:29:04;;;;;;;2.00;1.80;;;21.00;99.90;;;;;;5008928;28;20469;-60
2023/10/21 06:31:33;;;;;;;2.10;1.87;;;21.10;99.90;;;;;;4797571;28;20470;-60
2023/10/21 06:34:00;;;;;;;2.87;2.23;;;21.10;99.90;;;;;;4762237;28;22767;-60
2023/10/21 06:36:27;;;;;;;4.03;2.17;;;21.30;99.90;;;;;;4791318;28;20519;-60
2023/10/21 06:38:54;;;;;;;2.30;2.00;;;21.10;99.90;;;;;;4791084;28;20934;-60
2023/10/21 06:41:21;;;;;;;2.80;1.63;;;21.20;99.90;;;;;;4786848;28;21843;-60
2023/10/21 06:43:48;;;;;;;1.83;1.67;;;21.20;99.90;;;;;;4795411;28;22167;-60
2023/10/21 06:46:16;;;;;;;2.77;1.93;;;21.20;99.90;;;;;;4808286;28;21153;-61
2023/10/21 06:48:44;;;;;;;3.63;1.77;;;21.30;99.90;;;;;;4819797;28;21492;-60
2023/10/21 06:51:13;;;;;;;3.03;1.60;;;21.20;99.90;;;;;;4815943;28;21955;-60
2023/10/21 06:53:40;;;;;;;2.07;1.70;;;21.30;99.90;;;;;;4824098;28;20797;-60
2023/10/21 06:56:10;;;;;;;2.07;1.40;;;21.30;99.90;;;;;;4802648;28;20472;-60
2023/10/21 06:58:38;;;;;;;2.80;2.30;;;21.30;99.90;;;;;;4826213;28;21056;-61
2023/10/21 07:01:04;;;;;;;2.80;1.93;;;21.30;99.90;;;;;;4839449;28;21151;-59
2023/10/21 07:03:31;;;;;;;3.00;1.60;;;21.30;99.90;;;;;;4849335;28;20469;-60
2023/10/21 07:05:59;;;;;;;1.93;1.73;;;21.20;99.90;;;;;;4853934;28;20476;-61
2023/10/21 07:08:26;;;;;;;2.17;1.80;;;21.40;99.90;;;;;;4854838;28;20486;-61
2023/10/21 07:10:53;;;;;;;3.40;2.00;;;21.40;99.90;;;;;;4861435;28;20478;-61
2023/10/21 07:13:20;;;;;;;2.13;1.83;;;21.40;99.90;;;;;;4845913;28;20462;-60
2023/10/21 07:15:47;;;;;;;3.33;1.90;;;21.40;99.90;;;;;;4841660;28;20458;-60
2023/10/21 07:18:14;;;;;;;2.10;1.90;;;21.50;99.90;;;;;;4854110;28;25282;-60
2023/10/21 07:20:41;;;;;;;2.03;1.40;;;21.40;99.90;;;;;;4858618;28;21052;-61
2023/10/21 07:23:12;;;;;;;1.83;1.60;;;21.40;99.90;;;;;;4855726;28;20474;-60
2023/10/21 07:25:40;;;;;;;3.20;1.90;;;21.40;99.90;;;;;;4864050;28;24978;-60
2023/10/21 07:28:06;;;;;;;2.17;1.90;;;21.40;99.90;;;;;;4858075;28;20575;-60
2023/10/21 07:30:33;;;;;;;2.23;1.83;;;21.50;99.90;;;;;;4862188;28;21261;-62
2023/10/21 07:33:01;;;;;;;2.20;1.80;;;21.50;99.90;;;;;;4871836;28;20513;-60
2023/10/21 07:35:27;;;;;;;2.33;1.60;;;21.50;99.90;;;;;;4875759;28;21072;-60
2023/10/21 07:37:56;;;;;;;2.20;1.80;;;21.50;99.90;;;;;;4876147;28;20468;-61
2023/10/21 07:40:25;;;;;;;2.27;1.70;;;21.50;99.90;;;;;;4879178;28;20461;-61
2023/10/21 07:42:54;;;;;;;2.60;1.80;;;21.50;99.90;;;;;;4880508;28;21335;-61
2023/10/21 07:45:21;;;;;;;2.10;1.50;;;21.50;99.90;;;;;;4878553;28;20549;-60
2023/10/21 07:47:48;;;;;;;5.53;1.67;;;21.50;99.90;;;;;;4881257;28;30230;-61
2023/10/21 07:50:16;;;;;;;1.90;1.63;;;21.50;99.90;;;;;;4884443;28;21108;-62
2023/10/21 07:52:44;;;;;;;2.23;1.07;;;21.60;99.90;;;;;;4882275;28;20465;-60
2023/10/21 07:55:12;;;;;;;1.97;1.63;;;21.50;99.90;;;;;;4895698;28;20457;-60
2023/10/21 07:57:40;;;;;;;4.40;1.63;;;21.60;99.90;;;;;;4990896;28;20472;-62
2023/10/21 08:00:08;;;;;;;1.50;1.20;;;21.50;99.90;;;;;;5014644;28;20462;-61
2023/10/21 08:02:35;;;;;;;2.80;2.33;;;21.60;99.90;;;;;;5017361;28;20458;-61
2023/10/21 08:05:03;;;;;;;4.03;1.90;;;21.60;99.90;;;;;;5018666;28;20463;-62
2023/10/21 08:07:30;;;;;;;2.10;1.73;;;21.60;99.90;;;;;;5019722;28;20650;-62
2023/10/21 08:09:58;;;;;;;1.77;1.50;;;21.60;99.90;;;;;;5018912;28;21735;-62
2023/10/21 08:12:24;;;;;;;2.10;1.23;;;21.60;99.90;;;;;;5020955;28;20453;-62
2023/10/21 08:14:52;;;;;;;2.13;1.63;;;21.60;99.90;;;;;;5021188;28;20457;-62
2023/10/21 08:17:19;;;;;;;1.70;1.33;;;21.60;99.90;;;;;;5016910;28;20472;-62
2023/10/21 08:19:47;;;;;;;3.33;1.67;;;21.60;99.90;;;;;;5020429;28;20458;-61
2023/10/21 08:22:13;;;;;;;3.30;2.20;;;21.60;99.90;;;;;;5020349;28;20462;-62
2023/10/21 08:24:41;;;;;;;1.70;1.60;;;21.70;99.90;;;;;;5022396;28;20538;-61
2023/10/21 08:27:07;;;;;;;2.17;1.50;;;21.70;99.90;;;;;;5015377;28;20462;-62
2023/10/21 08:29:34;;;;;;;1.73;1.53;;;21.70;99.90;;;;;;5016942;28;20465;-62
2023/10/21 08:32:02;;;;;;;2.70;1.80;;;21.70;99.90;;;;;;5010033;28;20461;-61
2023/10/21 08:34:29;;;;;;;1.97;1.63;;;21.70;99.90;;;;;;5019783;28;20545;-61
2023/10/21 08:36:56;;;;;;;1.90;1.57;;;21.70;99.90;;;;;;5022430;28;20462;-61
2023/10/21 08:39:22;;;;;;;1.50;1.30;;;21.90;99.90;;;;;;5020727;28;20449;-60
2023/10/21 08:41:51;;;;;;;2.03;1.30;;;21.70;99.90;;;;;;5019820;28;22687;-61
2023/10/21 08:44:19;;;;;;;1.67;1.33;;;21.80;99.90;;;;;;5021021;28;20512;-61
2023/10/21 08:46:48;;;;;;;2.87;1.93;;;21.70;99.90;;;;;;5017231;28;20466;-61
2023/10/21 08:49:19;;;;;;;1.77;1.57;;;21.70;99.90;;;;;;5016514;28;20483;-62
2023/10/21 08:51:48;;;;;;;2.30;1.60;;;21.80;99.90;;;;;;5019772;28;20488;-61
2023/10/21 08:54:17;;;;;;;2.00;1.50;;;21.70;99.90;;;;;;5018827;28;20458;-61
2023/10/21 08:56:44;;;;;;;2.00;1.80;;;21.80;99.90;;;;;;5018792;28;20465;-61
2023/10/21 08:59:10;;;;;;;2.17;1.80;;;21.80;99.90;;;;;;5023116;28;20890;-62
2023/10/21 09:01:37;;;;;;;1.40;1.27;;;21.80;99.90;;;;;;5013990;28;20462;-61
2023/10/21 09:04:05;;;;;;;2.40;1.63;;;21.80;99.90;;;;;;5019494;28;20465;-61
2023/10/21 09:06:33;;;;;;;3.90;1.40;;;21.80;99.90;;;;;;5014386;28;20463;-61
2023/10/21 09:09:00;;;;;;;2.30;1.50;;;21.80;99.90;;;;;;5020025;28;20466;-61
2023/10/21 09:11:29;;;;;;;1.60;1.37;;;21.80;99.90;;;;;;5023963;28;21031;-61
2023/10/21 09:13:58;;;;;;;1.50;1.20;;;21.80;99.90;;;;;;5008499;28;20455;-62
2023/10/21 09:16:30;;;;;;;2.00;1.30;;;21.80;99.90;;;;;;5017655;28;20469;-61
2023/10/21 09:19:03;;;;;;;1.87;1.57;;;21.80;99.90;;;;;;5018579;28;20568;-60
2023/10/21 09:21:39;;;;;;;1.83;1.40;;;21.80;99.90;;;;;;5021305;28;21456;-61
2023/10/21 09:24:09;;;;;;;1.60;1.20;;;21.80;99.90;;;;;;5017243;28;20464;-62
2023/10/21 09:26:37;;;;;;;1.20;1.00;;;21.90;99.90;;;;;;5021540;28;20513;-61
2023/10/21 09:29:08;;;;;;;5.90;1.90;;;21.80;99.90;;;;;;5016870;28;20465;-61
2023/10/21 09:31:47;;;;;;;2.40;1.40;;;21.80;99.90;;;;;;5015501;28;21035;-68
2023/10/21 09:34:25;;;;;;;1.60;1.07;;;21.90;99.90;;;;;;5019135;28;20465;-65
2023/10/21 09:36:55;;;;;;;1.93;1.20;;;21.90;99.90;;;;;;5020822;28;20462;-62
2023/10/21 09:39:22;;;;;;;1.50;1.10;;;21.80;99.90;;;;;;5017137;28;21512;-69
2023/10/21 09:41:50;;;;;;;1.10;0.90;;;21.90;99.90;;;;;;5019965;28;20466;-71
2023/10/21 09:44:17;;;;;;;1.60;1.17;;;21.90;99.90;;;;;;5016797;28;20973;-69
2023/10/21 09:46:45;;;;;;;1.10;0.90;;;21.90;99.90;;;;;;5016277;28;20465;-67
2023/10/21 09:49:13;;;;;;;1.73;0.93;;;21.80;99.90;;;;;;5018046;28;20465;-71
2023/10/21 09:51:47;;;;;;;2.47;1.30;;;21.80;99.90;;;;;;5021962;28;20485;-66
2023/10/21 09:54:22;;;;;;;2.27;1.23;;;21.80;99.90;;;;;;5019842;28;22937;-68
2023/10/21 09:56:51;;;;;;;2.50;1.10;;;21.90;99.90;;;;;;5017821;28;21459;-73
2023/10/21 09:59:19;;;;;;;2.73;1.30;;;21.90;99.90;;;;;;5013057;28;20464;-64
2023/10/21 10:01:46;;;;;;;1.80;0.93;;;21.90;99.90;;;;;;5019888;28;21065;-68
2023/10/21 10:04:14;;;;;;;1.63;1.10;;;22.00;99.90;;;;;;5015605;28;21009;-74
2023/10/21 10:06:43;;;;;;;2.30;1.10;;;21.90;99.90;;;;;;5021403;28;20470;-64
2023/10/21 10:09:10;;;;;;;3.20;1.40;;;21.90;99.90;;;;;;5017468;28;20489;-65
2023/10/21 10:11:40;;;;;;;1.33;1.00;;;22.00;99.90;;;;;;5019156;28;20550;-62
2023/10/21 10:14:06;;;;;;;7.80;1.10;;;22.00;99.90;;;;;;5016483;28;20462;-63
2023/10/21 10:16:41;;;;;;;2.23;1.00;;;22.00;99.90;;;;;;5014749;28;20454;-64
2023/10/21 10:19:09;;;;;;;1.47;1.20;;;22.00;99.90;;;;;;5017191;28;20494;-64
2023/10/21 10:21:36;;;;;;;1.30;1.00;;;22.10;99.90;;;;;;5019836;28;20461;-69
2023/10/21 10:24:05;;;;;;;2.27;1.07;;;22.10;99.90;;;;;;5018449;28;20465;-68
2023/10/21 10:26:36;;;;;;;3.00;1.57;;;22.10;99.90;;;;;;5015337;28;20497;-70
2023/10/21 10:29:24;;;;;;;1.57;1.23;;;22.10;99.90;;;;;;5008188;28;20767;-68
2023/10/21 10:32:11;;;;;;;1.60;1.27;;;22.10;99.90;;;;;;5016262;28;20481;-69
2023/10/21 10:34:49;;;;;;;1.50;1.00;;;22.20;99.90;;;;;;5017496;28;21477;-71
2023/10/21 10:37:34;;;;;;;1.63;1.47;;;22.20;99.90;;;;;;5019052;28;20454;-69
2023/10/21 10:40:05;;;;;;;2.13;1.37;;;22.20;99.90;;;;;;5020511;28;20497;-67
2023/10/21 10:42:34;;;;;;;1.50;0.90;;;22.20;99.90;;;;;;5019246;28;20523;-63
2023/10/21 10:45:03;;;;;;;1.33;1.10;;;22.30;99.90;;;;;;5020574;28;20835;-66
2023/10/21 10:47:29;;;;;;;1.50;1.20;;;22.30;99.90;;;;;;5020582;28;20924;-68
2023/10/21 10:49:57;;;;;;;1.20;1.00;;;22.40;99.90;;;;;;5018572;28;20481;-63
2023/10/21 10:52:28;;;;;;;1.43;1.07;;;22.40;99.90;;;;;;5019805;28;20487;-65
2023/10/21 10:54:54;;;;;;;2.13;1.37;;;22.40;99.90;;;;;;5022718;28;20453;-62
2023/10/21 10:57:22;;;;;;;1.57;1.13;;;22.50;99.90;;;;;;5016092;28;21961;-63
2023/10/21 10:59:50;;;;;;;2.07;0.93;;;22.50;99.90;;;;;;5017356;28;20469;-66
2023/10/21 11:02:18;;;;;;;1.37;1.10;;;22.50;99.90;;;;;;5019132;28;20564;-63
2023/10/21 11:04:48;;;;;;;5.33;1.27;;;22.50;99.90;;;;;;5022643;28;20460;-63
2023/10/21 11:07:16;;;;;;;1.70;1.40;;;22.60;99.90;;;;;;5021271;28;20500;-65
2023/10/21 11:09:42;;;;;;;1.30;0.90;;;22.60;99.90;;;;;;5020864;28;20462;-66
2023/10/21 11:12:09;;;;;;;1.17;1.00;;;22.60;99.90;;;;;;5017794;28;20480;-64
2023/10/21 11:14:36;;;;;;;1.00;0.80;;;22.70;99.90;;;;;;5017638;28;20509;-64
2023/10/21 11:17:04;;;;;;;1.43;1.10;;;22.70;99.90;;;;;;5016993;28;20461;-64
2023/10/21 11:19:33;;;;;;;3.80;1.00;;;22.70;99.90;;;;;;5019164;28;20494;-64
2023/10/21 11:22:00;;;;;;;1.53;1.03;;;22.70;99.90;;;;;;5027211;28;20473;-64
2023/10/21 11:24:26;;;;;;;1.73;1.20;;;22.80;99.90;;;;;;5024735;28;20473;-66
2023/10/21 11:26:54;;;;;;;1.27;0.90;;;22.70;99.90;;;;;;5024180;28;20463;-63
2023/10/21 11:29:22;;;;;;;1.10;1.00;;;22.80;99.90;;;;;;5022571;28;20527;-63
2023/10/21 11:31:49;;;;;;;1.10;0.87;;;22.80;99.90;;;;;;5024860;28;21101;-68
2023/10/21 11:34:17;;;;;;;1.57;1.00;;;22.80;99.90;;;;;;5022613;28;20466;-68
2023/10/21 11:36:48;;;;;;;1.50;1.30;;;22.80;99.90;;;;;;5024885;28;20463;-64
2023/10/21 11:39:16;;;;;;;3.73;0.90;;;22.80;99.90;;;;;;5024854;28;20932;-67
2023/10/21 11:41:45;;;;;;;1.53;1.00;;;22.90;99.90;;;;;;5023433;28;21000;-67
2023/10/21 11:44:11;;;;;;;1.00;0.80;;;22.90;99.90;;;;;;5020563;28;20523;-65
2023/10/21 11:46:38;;;;;;;1.10;0.90;;;22.90;98.70;;;;;;5022614;28;20468;-67
2023/10/21 11:49:13;;;;;;;1.10;0.83;;;22.80;97.40;;;;;;5019692;28;20545;-68
2023/10/21 11:51:40;;;;;;;1.10;0.70;;;22.80;96.90;;;;;;5023672;28;20509;-67
2023/10/21 11:54:10;;;;;;;1.37;1.00;;;22.80;97.90;;;;;;5021905;28;20460;-66
2023/10/21 11:56:57;;;;;;;1.00;0.80;;;22.90;97.70;;;;;;5019866;28;20459;-63
2023/10/21 12:05:45;;;;;;;1.73;1.20;;;22.90;98.20;;;;;;4997075;28;20503;-65
2023/10/21 12:11:16;;;;;;;1.87;1.10;;;22.90;98.30;;;;;;5021121;28;20542;-65
2023/10/21 12:13:56;;;;;;;2.50;0.90;;;23.00;98.50;;;;;;5021299;28;20905;-65
2023/10/21 12:19:25;;;;;;;1.30;1.10;;;23.00;98.50;;;;;;5014342;28;20460;-68
2023/10/21 12:22:20;;;;;;;1.50;0.90;;;23.10;98.60;;;;;;5019473;28;20466;-71
2023/10/21 12:25:16;;;;;;;1.30;0.90;;;23.10;98.60;;;;;;5018335;28;20913;-72
2023/10/21 12:28:30;;;;;;;1.33;0.80;;;23.10;98.70;;;;;;5018212;28;20494;-64
2023/10/21 12:34:17;;;;;;;1.93;0.90;;;23.10;98.80;;;;;;5020322;28;20532;-65
2023/10/21 12:36:54;;;;;;;1.57;1.03;;;23.20;99.00;;;;;;5021465;28;20468;-66
2023/10/21 12:39:21;;;;;;;1.67;1.00;;;23.20;99.00;;;;;;5021190;28;20631;-61
2023/10/21 12:41:52;;;;;;;1.93;1.03;;;23.30;99.10;;;;;;5015596;28;20495;-63
2023/10/21 12:44:23;;;;;;;1.20;0.80;;;23.30;99.00;;;;;;5017615;28;20458;-62
2023/10/21 12:46:55;;;;;;;2.40;1.17;;;23.30;99.00;;;;;;5015521;28;20468;-64
2023/10/21 12:49:24;;;;;;;2.03;1.30;;;23.30;98.90;;;;;;5015114;28;20501;-64
2023/10/21 12:51:52;;;;;;;1.50;1.00;;;23.40;99.00;;;;;;5020376;28;20483;-69
2023/10/21 12:54:19;;;;;;;1.77;1.00;;;23.30;98.80;;;;;;5017077;28;20465;-67
2023/10/21 12:56:45;;;;;;;1.30;1.10;;;23.30;98.80;;;;;;5015458;28;21302;-68
2023/10/21 12:59:12;;;;;;;1.77;0.70;;;23.40;98.60;;;;;;5012851;28;20451;-65
2023/10/21 13:01:40;;;;;;;1.53;0.90;;;23.30;98.40;;;;;;4986150;28;20468;-66
2023/10/21 13:04:09;;;;;;;1.07;0.87;;;23.30;98.40;;;;;;5009940;28;20471;-64
2023/10/21 13:06:36;;;;;;;3.63;0.93;;;23.40;98.40;;;;;;5016495;28;20464;-64
2023/10/21 13:09:19;;;;;;;1.63;0.80;;;23.40;98.40;;;;;;5017120;28;20828;-68
2023/10/21 13:11:46;;;;;;;1.10;0.83;;;23.50;98.60;;;;;;5017852;28;21083;-63